createdAt,value
2022-12-23T00:01:25.470Z,100402.22
2022-12-23T00:03:54.626Z,100406.13
2022-12-23T00:06:23.550Z,100410.91
2022-12-23T00:08:58.934Z,100418.25
2022-12-23T00:11:29.055Z,100426.03
2022-12-23T00:14:20.933Z,100435.34
2022-12-23T00:16:52.334Z,100432.34
2022-12-23T00:19:21.317Z,100432.34
2022-12-23T00:21:50.349Z,100442.69
2022-12-23T00:24:20.715Z,100441.06
2022-12-23T00:26:49.268Z,100459.03
2022-12-23T00:29:17.985Z,100449.78
2022-12-23T00:31:46.524Z,100455.84
2022-12-23T00:34:15.310Z,100458.31
2022-12-23T00:36:45.664Z,100464.56
2022-12-23T00:39:32.099Z,100464.91
2022-12-23T00:42:24.889Z,100464.75
2022-12-23T00:45:14.786Z,100474.63
2022-12-23T00:48:01.474Z,100467.44
2022-12-23T00:50:31.100Z,100456.66
2022-12-23T00:53:00.248Z,100478.88
2022-12-23T00:55:29.718Z,100485.81
2022-12-23T00:58:00.817Z,100486.50
2022-12-23T01:00:43.977Z,100483.94
2022-12-23T01:03:32.654Z,100481.78
2022-12-23T01:06:02.402Z,100485.97
2022-12-23T01:08:31.184Z,100486.84
2022-12-23T01:11:05.135Z,100481.03
2022-12-23T01:13:35.143Z,100486.31
2022-12-23T01:16:08.295Z,100492.25
2022-12-23T01:18:41.868Z,100491.63
2022-12-23T01:21:12.343Z,100490.16
2022-12-23T01:23:41.053Z,100492.78
2022-12-23T01:26:13.016Z,100490.38
2022-12-23T01:28:43.949Z,100492.50
2022-12-23T01:31:12.760Z,100500.84
2022-12-23T01:33:41.582Z,100513.31
2022-12-23T01:36:13.570Z,100517.84
2022-12-23T01:38:44.821Z,100511.44
2022-12-23T01:41:39.708Z,100518.72
2022-12-23T01:44:56.443Z,100522.91
2022-12-23T01:47:33.413Z,100521.47
2022-12-23T01:50:09.811Z,100527.03
2022-12-23T01:52:46.220Z,100525.63
2022-12-23T01:55:20.150Z,100524.06
2022-12-23T01:57:49.746Z,100528.69
2022-12-23T02:00:38.873Z,100528.41
2022-12-23T02:03:24.859Z,100540.91
2022-12-23T02:06:15.005Z,100545.63
2022-12-23T02:09:01.696Z,100550.19
2022-12-23T02:11:53.108Z,100566.44
2022-12-23T02:14:58.616Z,100567.22
2022-12-23T02:17:38.309Z,100571.56
2022-12-23T02:20:38.674Z,100587.66
2022-12-23T02:23:40.888Z,100578.81
2022-12-23T02:26:50.053Z,100582.69
2022-12-23T02:30:06.838Z,100580.91
2022-12-23T02:32:57.004Z,100588.09
2022-12-23T02:35:33.521Z,100594.75
2022-12-23T02:38:13.851Z,100595.78
2022-12-23T02:40:51.322Z,100601.19
2022-12-23T02:43:32.177Z,100608.53
2022-12-23T02:46:08.821Z,100600.22
2022-12-23T02:48:47.346Z,100604.66
2022-12-23T02:51:17.935Z,100601.59
2022-12-23T02:53:52.484Z,100613.59
2022-12-23T02:56:24.548Z,100613.59
2022-12-23T02:59:05.624Z,100622.63
2022-12-23T03:01:36.763Z,100625.25
2022-12-23T03:04:08.664Z,100620.69
2022-12-23T03:06:42.232Z,100631.22
2022-12-23T03:09:16.501Z,100624.47
2022-12-23T03:11:59.972Z,100622.50
2022-12-23T03:14:49.320Z,100625.88
2022-12-23T03:17:39.798Z,100624.75
2022-12-23T03:20:22.888Z,100629.31
2022-12-23T03:23:04.825Z,100646.09
2022-12-23T03:25:38.315Z,100630.56
2022-12-23T03:28:16.422Z,100641.41
2022-12-23T03:30:52.670Z,100630.56
2022-12-23T03:33:26.309Z,100638.94
2022-12-23T03:36:05.228Z,100640.34
2022-12-23T03:38:38.035Z,100632.94
2022-12-23T03:41:12.274Z,100632.69
2022-12-23T03:43:50.625Z,100634.66
2022-12-23T03:46:26.235Z,100629.53
2022-12-23T03:49:01.233Z,100630.72
2022-12-23T03:51:38.214Z,100630.50
2022-12-23T03:54:21.533Z,100628.13
2022-12-23T03:57:01.633Z,100632.53
2022-12-23T03:59:35.726Z,100639.66
2022-12-23T04:02:15.047Z,100641.03
2022-12-23T04:05:07.790Z,100653.66
2022-12-23T04:07:44.010Z,100658.81
2022-12-23T04:10:12.828Z,100653.41
2022-12-23T04:12:44.663Z,100655.88
2022-12-23T04:15:13.929Z,100662.78
2022-12-23T04:17:43.574Z,100660.66
2022-12-23T04:20:13.191Z,100668.00
2022-12-23T04:22:44.853Z,100680.44
2022-12-23T04:25:14.332Z,100681.28
2022-12-23T04:27:43.963Z,100693.53
2022-12-23T04:30:15.310Z,100689.78
2022-12-23T04:32:45.450Z,100683.78
2022-12-23T04:35:15.352Z,100697.53
2022-12-23T04:37:46.299Z,100700.31
2022-12-23T04:40:16.772Z,100692.22
2022-12-23T04:42:47.813Z,100690.91
2022-12-23T04:45:20.905Z,100685.28
2022-12-23T04:47:49.525Z,100676.19
2022-12-23T04:50:18.692Z,100668.63
2022-12-23T04:52:48.977Z,100668.25
2022-12-23T04:55:17.838Z,100658.00
2022-12-23T04:57:46.925Z,100664.81
2022-12-23T05:00:18.615Z,100657.63
2022-12-23T05:02:48.267Z,100655.97
2022-12-23T05:05:17.377Z,100654.19
2022-12-23T05:07:49.985Z,100649.78
2022-12-23T05:10:19.908Z,100654.84
2022-12-23T05:12:49.260Z,100649.09
2022-12-23T05:15:18.445Z,100646.16
2022-12-23T05:17:47.021Z,100650.72
2022-12-23T05:20:15.817Z,100653.41
2022-12-23T05:22:45.149Z,100651.09
2022-12-23T05:25:19.185Z,100670.78
2022-12-23T05:27:48.921Z,100672.44
2022-12-23T05:30:18.657Z,100673.47
2022-12-23T05:32:48.276Z,100662.56
2022-12-23T05:35:17.260Z,100676.63
2022-12-23T05:37:46.144Z,100687.84
2022-12-23T05:40:23.142Z,100685.16
2022-12-23T05:42:52.753Z,100688.91
2022-12-23T05:45:22.582Z,100686.44
2022-12-23T05:47:51.729Z,100680.56
2022-12-23T05:50:20.631Z,100688.13
2022-12-23T05:52:49.719Z,100683.44
2022-12-23T05:55:19.948Z,100685.72
2022-12-23T05:57:48.536Z,100690.91
2022-12-23T06:00:20.380Z,100690.25
2022-12-23T06:02:53.860Z,100681.31
2022-12-23T06:05:23.666Z,100683.25
2022-12-23T06:07:53.512Z,100682.47
2022-12-23T06:10:25.578Z,100681.78
2022-12-23T06:12:56.375Z,100686.59
2022-12-23T06:15:29.505Z,100682.28
2022-12-23T06:17:58.960Z,100686.34
2022-12-23T06:20:27.806Z,100691.88
2022-12-23T06:22:56.707Z,100698.38
2022-12-23T06:25:27.358Z,100679.53
2022-12-23T06:27:57.429Z,100687.09
2022-12-23T06:30:26.760Z,100685.75
2022-12-23T06:32:56.505Z,100669.69
2022-12-23T06:35:25.184Z,100672.56
2022-12-23T06:37:55.145Z,100678.47
2022-12-23T06:40:29.386Z,100675.53
2022-12-23T06:42:58.306Z,100680.59
2022-12-23T06:45:27.301Z,100683.28
2022-12-23T06:47:56.188Z,100691.03
2022-12-23T06:50:26.263Z,100695.34
2022-12-23T06:52:55.253Z,100698.22
2022-12-23T06:55:25.445Z,100692.25
2022-12-23T06:57:54.240Z,100698.41
2022-12-23T07:00:29.933Z,100702.31
2022-12-23T07:02:59.638Z,100697.22
2022-12-23T07:05:36.505Z,100696.28
2022-12-23T07:08:06.395Z,100702.63
2022-12-23T07:10:38.257Z,100689.97
2022-12-23T07:13:06.724Z,100705.13
2022-12-23T07:15:36.091Z,100708.94
2022-12-23T07:18:05.272Z,100711.09
2022-12-23T07:20:37.462Z,100725.16
2022-12-23T07:23:06.083Z,100719.56
2022-12-23T07:25:36.582Z,100738.47
2022-12-23T07:28:06.012Z,100742.94
2022-12-23T07:30:34.641Z,100746.78
2022-12-23T07:33:12.536Z,100757.09
2022-12-23T07:35:42.975Z,100744.50
2022-12-23T07:38:13.539Z,100730.84
2022-12-23T07:41:06.401Z,100723.59
2022-12-23T07:43:35.327Z,100745.38
2022-12-23T07:46:08.666Z,100725.84
2022-12-23T07:48:38.668Z,100721.53
2022-12-23T07:51:08.482Z,100719.03
2022-12-23T07:53:37.603Z,100726.75
2022-12-23T07:56:11.184Z,100720.88
2022-12-23T07:58:40.797Z,100713.81
2022-12-23T08:01:10.594Z,100711.72
2022-12-23T08:03:39.389Z,100711.34
2022-12-23T08:06:15.872Z,100708.09
2022-12-23T08:08:48.618Z,100698.19
2022-12-23T08:11:19.541Z,100701.09
2022-12-23T08:13:54.140Z,100701.09
2022-12-23T08:16:22.579Z,100697.34
2022-12-23T08:18:51.485Z,100699.25
2022-12-23T08:21:23.787Z,100682.50
2022-12-23T08:23:55.929Z,100686.81
2022-12-23T08:26:27.694Z,100678.44
2022-12-23T08:28:57.536Z,100694.88
2022-12-23T08:31:31.948Z,100695.06
2022-12-23T08:34:02.349Z,100702.94
2022-12-23T08:36:33.566Z,100702.81
2022-12-23T08:39:07.235Z,100705.84
2022-12-23T08:41:40.426Z,100707.03
2022-12-23T08:44:12.812Z,100694.00
2022-12-23T08:46:50.536Z,100677.72
2022-12-23T08:49:19.233Z,100669.22
2022-12-23T08:51:53.250Z,100657.94
2022-12-23T08:54:22.220Z,100654.97
2022-12-23T08:56:58.884Z,100641.91
2022-12-23T08:59:27.305Z,100653.44
2022-12-23T09:01:56.799Z,100654.97
2022-12-23T09:04:25.905Z,100662.84
2022-12-23T09:06:57.579Z,100657.47
2022-12-23T09:09:26.383Z,100652.88
2022-12-23T09:11:55.352Z,100651.66
2022-12-23T09:14:25.185Z,100645.66
2022-12-23T09:16:53.606Z,100647.34
2022-12-23T09:19:22.220Z,100644.59
2022-12-23T09:22:10.369Z,100660.97
2022-12-23T09:24:39.411Z,100657.09
2022-12-23T09:27:08.064Z,100654.00
2022-12-23T09:29:38.089Z,100639.47
2022-12-23T09:32:07.059Z,100641.19
2022-12-23T09:34:35.995Z,100642.09
2022-12-23T09:37:04.674Z,100649.06
2022-12-23T09:39:33.274Z,100634.19
2022-12-23T09:42:17.181Z,100634.16
2022-12-23T09:45:13.059Z,100624.59
2022-12-23T09:47:42.886Z,100631.94
2022-12-23T09:50:22.952Z,100628.06
2022-12-23T09:53:02.839Z,100637.75
2022-12-23T09:55:41.704Z,100637.31
2022-12-23T09:58:19.746Z,100628.34
2022-12-23T10:01:12.146Z,100629.38
2022-12-23T10:04:19.159Z,100620.72
2022-12-23T10:07:02.637Z,100602.31
2022-12-23T10:09:34.776Z,100593.13
2022-12-23T10:12:27.439Z,100580.34
2022-12-23T10:15:02.296Z,100565.13
2022-12-23T10:17:41.808Z,100574.00
2022-12-23T10:20:19.381Z,100567.88
2022-12-23T10:22:48.599Z,100567.28
2022-12-23T10:25:24.836Z,100576.34
2022-12-23T10:27:53.645Z,100570.13
2022-12-23T10:30:54.018Z,100564.91
2022-12-23T10:33:23.554Z,100556.28
2022-12-23T10:36:03.978Z,100552.69
2022-12-23T10:38:56.156Z,100562.44
2022-12-23T10:41:40.327Z,100548.00
2022-12-23T10:44:36.904Z,100540.91
2022-12-23T10:47:20.463Z,100537.19
2022-12-23T10:50:09.455Z,100546.56
2022-12-23T10:52:42.294Z,100545.25
2022-12-23T10:55:28.545Z,100535.16
2022-12-23T10:58:09.856Z,100540.91
2022-12-23T11:00:42.701Z,100545.31
2022-12-23T11:03:20.098Z,100529.84
2022-12-23T11:05:57.874Z,100525.03
2022-12-23T11:08:30.778Z,100516.81
2022-12-23T11:11:02.914Z,100513.84
2022-12-23T11:13:41.584Z,100510.50
2022-12-23T11:16:17.147Z,100505.34
2022-12-23T11:18:59.737Z,100506.19
2022-12-23T11:21:34.562Z,100509.56
2022-12-23T11:24:18.220Z,100501.28
2022-12-23T11:26:52.400Z,100490.78
2022-12-23T11:29:25.661Z,100492.16
2022-12-23T11:31:55.076Z,100479.22
2022-12-23T11:34:27.444Z,100488.50
2022-12-23T11:37:03.571Z,100474.78
2022-12-23T11:39:38.227Z,100473.78
2022-12-23T11:42:14.163Z,100464.03
2022-12-23T11:44:47.562Z,100450.22
2022-12-23T11:47:29.420Z,100439.66
2022-12-23T11:50:01.240Z,100440.03
2022-12-23T11:52:33.548Z,100433.22
2022-12-23T11:55:26.975Z,100432.88
2022-12-23T11:57:58.772Z,100430.84
2022-12-23T12:00:33.910Z,100423.84
2022-12-23T12:03:05.205Z,100408.13
2022-12-23T12:05:40.943Z,100410.84
2022-12-23T12:08:15.925Z,100408.78
2022-12-23T12:10:44.876Z,100394.19
2022-12-23T12:13:27.600Z,100400.03
2022-12-23T12:16:12.333Z,100408.59
2022-12-23T12:18:44.028Z,100390.94
2022-12-23T12:21:16.211Z,100375.47
2022-12-23T12:24:08.222Z,100381.59
2022-12-23T12:26:41.937Z,100376.50
2022-12-23T12:29:20.842Z,100367.34
2022-12-23T12:31:56.557Z,100355.97
2022-12-23T12:34:42.619Z,100363.81
2022-12-23T12:37:24.177Z,100360.97
2022-12-23T12:39:57.912Z,100346.34
2022-12-23T12:42:33.908Z,100344.31
2022-12-23T12:45:24.390Z,100336.84
2022-12-23T12:48:23.792Z,100327.53
2022-12-23T12:51:02.385Z,100322.44
2022-12-23T12:53:34.428Z,100311.94
2022-12-23T12:56:22.980Z,100305.59
2022-12-23T12:58:52.417Z,100301.66
2022-12-23T13:01:46.847Z,100300.66
2022-12-23T13:04:42.828Z,100289.34
2022-12-23T13:07:25.309Z,100295.66
2022-12-23T13:10:02.643Z,100294.28
2022-12-23T13:12:47.188Z,100295.19
2022-12-23T13:15:24.866Z,100285.06
2022-12-23T13:18:20.976Z,100288.16
2022-12-23T13:20:53.582Z,100287.09
2022-12-23T13:23:45.489Z,100277.78
2022-12-23T13:26:30.195Z,100290.53
2022-12-23T13:29:39.513Z,100294.13
2022-12-23T13:32:24.058Z,100290.19
2022-12-23T13:35:05.758Z,100283.00
2022-12-23T13:37:49.221Z,100260.59
2022-12-23T13:40:35.169Z,100259.09
2022-12-23T13:43:20.961Z,100266.38
2022-12-23T13:45:51.624Z,100257.78
2022-12-23T13:48:37.487Z,100258.25
2022-12-23T13:51:11.296Z,100247.91
2022-12-23T13:54:04.379Z,100238.94
2022-12-23T13:56:43.307Z,100223.34
2022-12-23T13:59:13.994Z,100230.03
2022-12-23T14:01:50.060Z,100211.06
2022-12-23T14:04:38.937Z,100214.06
2022-12-23T14:07:21.587Z,100216.13
2022-12-23T14:09:57.392Z,100218.22
2022-12-23T14:12:30.771Z,100215.03
2022-12-23T14:15:28.132Z,100216.41
2022-12-23T14:18:16.196Z,100207.84
2022-12-23T14:20:53.074Z,100201.94
2022-12-23T14:23:45.123Z,100188.03
2022-12-23T14:26:37.641Z,100182.72
2022-12-23T14:29:36.693Z,100181.47
2022-12-23T14:32:22.226Z,100173.66
2022-12-23T14:35:53.875Z,100173.94
2022-12-23T14:38:32.574Z,100151.78
2022-12-23T14:41:24.474Z,100139.75
2022-12-23T14:43:59.686Z,100142.78
2022-12-23T14:47:02.613Z,100141.66
2022-12-23T14:49:45.197Z,100152.53
2022-12-23T14:53:00.648Z,100156.16
2022-12-23T14:56:21.741Z,100155.81
2022-12-23T14:59:18.332Z,100162.56
2022-12-23T15:01:51.463Z,100148.19
2022-12-23T15:04:25.416Z,100149.16
2022-12-23T15:07:07.653Z,100162.63
2022-12-23T15:09:50.037Z,100138.91
2022-12-23T15:12:32.603Z,100147.22
2022-12-23T15:15:07.828Z,100155.28
2022-12-23T15:17:38.201Z,100168.25
2022-12-23T15:20:17.245Z,100163.34
2022-12-23T15:22:47.867Z,100175.22
2022-12-23T15:25:27.349Z,100172.66
2022-12-23T15:28:01.917Z,100179.59
2022-12-23T15:30:39.131Z,100179.31
2022-12-23T15:33:28.243Z,100177.56
2022-12-23T15:35:59.401Z,100172.28
2022-12-23T15:38:32.495Z,100164.56
2022-12-23T15:41:18.122Z,100158.66
2022-12-23T15:43:49.324Z,100166.09
2022-12-23T15:46:28.722Z,100165.09
2022-12-23T15:49:00.697Z,100146.84
2022-12-23T15:52:20.091Z,100162.53
2022-12-23T15:54:31.627Z,100170.47
2022-12-23T15:57:04.530Z,100174.75
2022-12-23T15:59:38.464Z,100169.72
2022-12-23T16:02:58.275Z,100163.47
2022-12-23T16:05:12.302Z,100154.78
2022-12-23T16:07:44.313Z,100159.63
2022-12-23T16:10:19.976Z,100149.88
2022-12-23T16:12:52.306Z,100154.13
2022-12-23T16:15:27.049Z,100154.13
2022-12-23T16:18:14.603Z,100142.72
2022-12-23T16:20:47.382Z,100145.09
2022-12-23T16:23:17.961Z,100145.69
2022-12-23T16:25:50.996Z,100150.16
2022-12-23T16:28:27.965Z,100150.81
2022-12-23T16:31:00.763Z,100149.91
2022-12-23T16:33:42.873Z,100150.44
2022-12-23T16:36:24.379Z,100152.66
2022-12-23T16:38:58.765Z,100159.03
2022-12-23T16:41:30.410Z,100161.25
2022-12-23T16:44:03.876Z,100167.78
2022-12-23T16:46:37.301Z,100155.56
2022-12-23T16:49:13.065Z,100161.78
2022-12-23T16:51:42.901Z,100161.16
2022-12-23T16:54:17.936Z,100174.69
2022-12-23T16:56:48.146Z,100181.88
2022-12-23T16:59:21.971Z,100174.97
2022-12-23T17:01:51.277Z,100165.09
2022-12-23T17:04:20.625Z,100159.78
2022-12-23T17:06:50.419Z,100143.66
2022-12-23T17:09:19.403Z,100158.16
2022-12-23T17:11:50.667Z,100162.53
2022-12-23T17:14:24.002Z,100157.28
2022-12-23T17:16:53.432Z,100154.81
2022-12-23T17:19:28.789Z,100153.88
2022-12-23T17:22:04.494Z,100156.13
2022-12-23T17:24:33.650Z,100149.25
2022-12-23T17:27:02.497Z,100145.06
2022-12-23T17:29:33.123Z,100155.91
2022-12-23T17:32:02.079Z,100157.22
2022-12-23T17:34:31.463Z,100164.06
2022-12-23T17:37:01.471Z,100160.28
2022-12-23T17:39:31.460Z,100161.38
2022-12-23T17:42:00.166Z,100160.94
2022-12-23T17:44:32.868Z,100147.53
2022-12-23T17:47:04.117Z,100161.03
2022-12-23T17:49:35.859Z,100154.81
2022-12-23T17:52:15.603Z,100149.25
2022-12-23T17:54:48.528Z,100158.47
2022-12-23T17:57:22.500Z,100147.13
2022-12-23T17:59:56.859Z,100150.53
2022-12-23T18:02:41.356Z,100159.97
2022-12-23T18:05:27.279Z,100171.13
2022-12-23T18:08:03.846Z,100145.72
2022-12-23T18:10:38.898Z,100160.09
2022-12-23T18:13:24.573Z,100163.59
2022-12-23T18:15:57.032Z,100160.28
2022-12-23T18:18:37.791Z,100153.41
2022-12-23T18:21:29.951Z,100161.03
2022-12-23T18:24:01.246Z,100152.94
2022-12-23T18:26:34.088Z,100173.97
2022-12-23T18:29:04.612Z,100181.13
2022-12-23T18:31:37.697Z,100162.56
2022-12-23T18:34:18.764Z,100163.41
2022-12-23T18:36:52.321Z,100164.72
2022-12-23T18:39:25.443Z,100173.31
2022-12-23T18:41:58.579Z,100170.41
2022-12-23T18:44:30.819Z,100169.66
2022-12-23T18:47:01.331Z,100166.88
2022-12-23T18:49:34.041Z,100163.31
2022-12-23T18:52:04.603Z,100159.66
2022-12-23T18:54:36.483Z,100183.91
2022-12-23T18:57:07.054Z,100178.25
2022-12-23T18:59:43.926Z,100183.06
2022-12-23T19:02:16.191Z,100185.75
2022-12-23T19:04:48.883Z,100195.50
2022-12-23T19:07:17.972Z,100204.63
2022-12-23T19:09:47.410Z,100200.78
2022-12-23T19:12:20.574Z,100206.97
2022-12-23T19:14:50.885Z,100222.91
2022-12-23T19:17:20.210Z,100207.84
2022-12-23T19:19:51.817Z,100210.09
2022-12-23T19:22:32.425Z,100211.06
2022-12-23T19:25:09.284Z,100214.38
2022-12-23T19:27:41.800Z,100220.16
2022-12-23T19:30:18.252Z,100223.06
2022-12-23T19:32:50.379Z,100209.22
2022-12-23T19:35:27.716Z,100232.41
2022-12-23T19:38:08.491Z,100227.16
2022-12-23T19:40:44.673Z,100233.56
2022-12-23T19:43:19.465Z,100237.44
2022-12-23T19:46:05.203Z,100232.28
2022-12-23T19:48:35.313Z,100241.34
2022-12-23T19:51:14.736Z,100231.00
2022-12-23T19:53:47.837Z,100235.69
2022-12-23T19:56:21.299Z,100250.53
2022-12-23T19:58:55.426Z,100241.94
2022-12-23T20:01:33.563Z,100251.16
2022-12-23T20:04:05.915Z,100260.81
2022-12-23T20:06:42.043Z,100254.78
2022-12-23T20:09:16.353Z,100263.84
2022-12-23T20:11:47.619Z,100262.84
2022-12-23T20:14:22.546Z,100273.78
2022-12-23T20:16:52.700Z,100265.34
2022-12-23T20:19:26.104Z,100261.25
2022-12-23T20:21:56.732Z,100282.50
2022-12-23T20:24:27.681Z,100273.25
2022-12-23T20:27:06.281Z,100273.25
2022-12-23T20:29:41.800Z,100274.97
2022-12-23T20:32:11.615Z,100280.31
2022-12-23T20:34:42.848Z,100287.31
2022-12-23T20:37:26.023Z,100302.47
2022-12-23T20:39:55.515Z,100304.38
2022-12-23T20:42:28.459Z,100305.47
2022-12-23T20:45:03.560Z,100296.66
2022-12-23T20:47:34.651Z,100309.75
2022-12-23T20:50:06.112Z,100304.81
2022-12-23T20:52:39.105Z,100318.31
2022-12-23T20:55:17.485Z,100315.97
2022-12-23T20:57:52.371Z,100319.38
2022-12-23T21:00:24.375Z,100326.91
2022-12-23T21:02:55.695Z,100344.69
2022-12-23T21:05:28.718Z,100344.91
2022-12-23T21:08:02.331Z,100346.66
2022-12-23T21:10:32.946Z,100351.19
2022-12-23T21:13:03.002Z,100361.47
2022-12-23T21:15:34.223Z,100359.72
2022-12-23T21:18:03.966Z,100360.91
2022-12-23T21:20:33.365Z,100365.56
2022-12-23T21:23:04.189Z,100368.09
2022-12-23T21:25:33.812Z,100382.69
2022-12-23T21:28:05.338Z,100380.63
2022-12-23T21:30:35.922Z,100375.34
2022-12-23T21:33:04.645Z,100395.16
2022-12-23T21:35:33.748Z,100399.59
2022-12-23T21:38:04.585Z,100404.59
2022-12-23T21:40:33.722Z,100408.97
2022-12-23T21:43:08.510Z,100404.56
2022-12-23T21:45:38.224Z,100406.09
2022-12-23T21:48:10.691Z,100413.56
2022-12-23T21:50:40.251Z,100419.69
2022-12-23T21:53:10.881Z,100419.19
2022-12-23T21:55:39.911Z,100421.88
2022-12-23T21:58:08.941Z,100417.25
2022-12-23T22:00:37.951Z,100428.28
2022-12-23T22:03:07.021Z,100441.69
2022-12-23T22:05:36.031Z,100453.78
2022-12-23T22:08:04.731Z,100442.28
2022-12-23T22:10:38.140Z,100468.19
2022-12-23T22:13:07.036Z,100461.75
2022-12-23T22:15:35.686Z,100468.81
2022-12-23T22:18:07.321Z,100467.66
2022-12-23T22:20:42.654Z,100472.28
2022-12-23T22:23:14.853Z,100475.22
2022-12-23T22:25:52.718Z,100471.34
2022-12-23T22:28:21.709Z,100491.94
2022-12-23T22:30:50.579Z,100489.78
2022-12-23T22:33:19.153Z,100491.31
2022-12-23T22:35:56.899Z,100491.66
2022-12-23T22:38:25.622Z,100496.31
2022-12-23T22:40:55.847Z,100500.09
2022-12-23T22:43:24.304Z,100494.59
2022-12-23T22:45:58.084Z,100495.88
2022-12-23T22:48:29.031Z,100498.56
2022-12-23T22:51:04.125Z,100488.25
2022-12-23T22:53:33.507Z,100480.44
2022-12-23T22:56:05.150Z,100489.22
2022-12-23T22:58:38.444Z,100498.69
2022-12-23T23:01:07.835Z,100499.50
2022-12-23T23:03:36.511Z,100502.38
2022-12-23T23:06:08.291Z,100500.41
2022-12-23T23:08:37.134Z,100501.25
2022-12-23T23:11:07.496Z,100508.59
2022-12-23T23:13:36.713Z,100501.97
2022-12-23T23:16:05.615Z,100500.09
2022-12-23T23:18:34.909Z,100504.94
2022-12-23T23:21:03.803Z,100504.53
2022-12-23T23:23:32.469Z,100512.59
2022-12-23T23:26:01.151Z,100517.34
2022-12-23T23:28:31.557Z,100514.50
2022-12-23T23:31:31.988Z,100532.75
2022-12-23T23:33:48.590Z,100539.22
2022-12-23T23:36:17.328Z,100536.19
2022-12-23T23:38:46.401Z,100533.09
2022-12-23T23:41:18.912Z,100551.00
2022-12-23T23:43:52.905Z,100542.97
2022-12-23T23:46:21.954Z,100555.97
2022-12-23T23:48:50.520Z,100565.56
2022-12-23T23:51:19.289Z,100565.13
2022-12-23T23:53:48.022Z,100573.25
2022-12-23T23:56:22.056Z,100566.88
2022-12-23T23:58:55.118Z,100575.44
